createdAt,value
2019-03-22T00:00:41.491Z,29.02
2019-03-22T00:01:17.797Z,28.50
2019-03-22T00:01:51.464Z,27.62
2019-03-22T00:02:25.209Z,27.07
2019-03-22T00:02:59.004Z,31.27
2019-03-22T00:03:32.669Z,29.15
2019-03-22T00:04:06.575Z,29.40
2019-03-22T00:04:40.335Z,30.40
2019-03-22T00:05:14.060Z,30.85
2019-03-22T00:05:47.795Z,28.60
2019-03-22T00:06:21.537Z,27.85
2019-03-22T00:06:55.262Z,28.60
2019-03-22T00:07:29.009Z,27.13
2019-03-22T00:08:02.945Z,28.65
2019-03-22T00:08:36.607Z,30.17
2019-03-22T00:09:10.362Z,31.60
2019-03-22T00:09:44.123Z,31.17
2019-03-22T00:10:17.785Z,33.85
2019-03-22T00:10:51.535Z,34.18
2019-03-22T00:11:25.188Z,32.67
2019-03-22T00:11:58.887Z,34.60
2019-03-22T00:12:32.620Z,32.85
2019-03-22T00:13:06.347Z,32.40
2019-03-22T00:13:40.081Z,31.27
2019-03-22T00:14:13.889Z,32.40
2019-03-22T00:14:47.553Z,30.23
2019-03-22T00:15:21.368Z,32.67
2019-03-22T00:15:55.054Z,32.45
2019-03-22T00:16:28.717Z,34.55
2019-03-22T00:17:02.403Z,31.97
2019-03-22T00:17:36.150Z,32.90
2019-03-22T00:18:09.817Z,33.15
2019-03-22T00:18:43.574Z,33.92
2019-03-22T00:19:17.261Z,35.90
2019-03-22T00:19:50.928Z,30.70
2019-03-22T00:20:24.834Z,32.20
2019-03-22T00:20:58.500Z,33.05
2019-03-22T00:21:32.238Z,30.20
2019-03-22T00:22:05.982Z,31.37
2019-03-22T00:22:39.645Z,33.53
2019-03-22T00:23:13.435Z,30.82
2019-03-22T00:23:47.285Z,32.90
2019-03-22T00:24:21.464Z,29.18
2019-03-22T00:24:55.227Z,30.57
2019-03-22T00:25:28.947Z,32.13
2019-03-22T00:26:02.667Z,31.42
2019-03-22T00:26:36.410Z,31.35
2019-03-22T00:27:16.467Z,30.55
2019-03-22T00:27:45.451Z,32.03
2019-03-22T00:28:19.118Z,29.35
2019-03-22T00:28:52.778Z,33.02
2019-03-22T00:29:26.464Z,30.70
2019-03-22T00:30:00.380Z,31.23
2019-03-22T00:30:34.072Z,29.80
2019-03-22T00:31:07.813Z,32.08
2019-03-22T00:31:41.628Z,28.87
2019-03-22T00:32:15.290Z,30.50
2019-03-22T00:32:48.954Z,30.37
2019-03-22T00:33:22.684Z,29.50
2019-03-22T00:33:56.420Z,28.10
2019-03-22T00:34:30.095Z,27.58
2019-03-22T00:35:03.835Z,26.90
2019-03-22T00:35:37.557Z,29.75
2019-03-22T00:36:11.272Z,28.73
2019-03-22T00:36:45.123Z,27.20
2019-03-22T00:37:18.921Z,28.17
2019-03-22T00:37:52.652Z,28.92
2019-03-22T00:38:26.441Z,28.38
2019-03-22T00:39:00.172Z,28.25
2019-03-22T00:39:34.672Z,30.37
2019-03-22T00:40:08.701Z,28.25
2019-03-22T00:40:42.429Z,29.50
2019-03-22T00:41:16.092Z,30.45
2019-03-22T00:41:49.838Z,30.60
2019-03-22T00:42:23.583Z,29.42
2019-03-22T00:42:57.333Z,30.50
2019-03-22T00:43:30.989Z,30.85
2019-03-22T00:44:04.653Z,31.62
2019-03-22T00:44:38.340Z,28.83
2019-03-22T00:45:12.159Z,29.52
2019-03-22T00:45:45.910Z,29.00
2019-03-22T00:46:19.653Z,30.27
2019-03-22T00:46:53.331Z,29.40
2019-03-22T00:47:27.000Z,30.23
2019-03-22T00:48:00.701Z,30.27
2019-03-22T00:48:34.365Z,29.65
2019-03-22T00:49:08.089Z,31.17
2019-03-22T00:49:41.771Z,28.70
2019-03-22T00:50:15.543Z,29.85
2019-03-22T00:50:49.328Z,29.67
2019-03-22T00:51:23.089Z,28.25
2019-03-22T00:51:56.745Z,27.98
2019-03-22T00:52:30.408Z,26.48
2019-03-22T00:53:04.128Z,26.85
2019-03-22T00:53:37.865Z,27.55
2019-03-22T00:54:11.524Z,29.12
2019-03-22T00:54:46.173Z,28.23
2019-03-22T00:55:19.920Z,26.15
2019-03-22T00:55:53.582Z,27.62
2019-03-22T00:56:27.247Z,27.73
2019-03-22T00:57:01.029Z,28.90
2019-03-22T00:57:34.816Z,26.73
2019-03-22T00:58:08.473Z,27.52
2019-03-22T00:58:42.119Z,29.85
2019-03-22T00:59:15.848Z,26.68
2019-03-22T00:59:50.253Z,26.87
2019-03-22T01:00:23.982Z,28.05
2019-03-22T01:00:57.721Z,27.35
2019-03-22T01:01:31.385Z,26.25
2019-03-22T01:02:05.645Z,25.45
2019-03-22T01:02:39.364Z,27.17
2019-03-22T01:03:13.025Z,25.30
2019-03-22T01:03:46.743Z,25.50
2019-03-22T01:04:20.481Z,26.45
2019-03-22T01:04:54.260Z,27.05
2019-03-22T01:05:28.073Z,28.32
2019-03-22T01:06:01.732Z,26.20
2019-03-22T01:06:36.681Z,26.97
2019-03-22T01:07:10.344Z,27.25
2019-03-22T01:07:44.094Z,25.97
2019-03-22T01:08:17.980Z,27.05
2019-03-22T01:08:51.641Z,28.15
2019-03-22T01:09:25.390Z,29.23
2019-03-22T01:09:59.088Z,25.35
2019-03-22T01:10:32.763Z,27.50
2019-03-22T01:11:06.546Z,26.57
2019-03-22T01:11:40.279Z,27.05
2019-03-22T01:12:13.920Z,26.00
2019-03-22T01:12:47.744Z,27.98
2019-03-22T01:13:21.573Z,28.55
2019-03-22T01:13:55.249Z,27.93
2019-03-22T01:14:28.914Z,26.97
2019-03-22T01:15:02.684Z,28.00
2019-03-22T01:15:36.428Z,29.63
2019-03-22T01:16:29.022Z,28.98
2019-03-22T01:17:02.987Z,27.25
2019-03-22T01:17:36.797Z,29.40
2019-03-22T01:18:10.564Z,27.62
2019-03-22T01:18:44.253Z,27.70
2019-03-22T01:19:17.908Z,27.35
2019-03-22T01:19:51.657Z,27.58
2019-03-22T01:20:25.572Z,28.02
2019-03-22T01:20:59.299Z,29.30
2019-03-22T01:21:32.966Z,26.93
2019-03-22T01:22:06.681Z,28.75
2019-03-22T01:22:40.415Z,28.42
2019-03-22T01:23:14.081Z,28.80
2019-03-22T01:23:47.817Z,27.98
2019-03-22T01:24:21.579Z,29.57
2019-03-22T01:24:55.239Z,30.02
2019-03-22T01:25:29.044Z,28.98
2019-03-22T01:26:02.780Z,30.40
2019-03-22T01:26:36.600Z,28.10
2019-03-22T01:27:10.395Z,29.25
2019-03-22T01:27:44.139Z,31.75
2019-03-22T01:28:17.919Z,29.87
2019-03-22T01:28:51.577Z,31.62
2019-03-22T01:29:25.436Z,31.10
2019-03-22T01:29:59.180Z,31.37
2019-03-22T01:30:32.845Z,30.50
2019-03-22T01:31:06.508Z,31.55
2019-03-22T01:31:40.289Z,29.65
2019-03-22T01:32:14.030Z,31.10
2019-03-22T01:32:47.721Z,29.80
2019-03-22T01:33:21.389Z,29.37
2019-03-22T01:33:55.052Z,30.00
2019-03-22T01:34:28.826Z,26.55
2019-03-22T01:35:02.565Z,32.08
2019-03-22T01:35:36.307Z,31.65
2019-03-22T01:36:10.093Z,30.52
2019-03-22T01:36:43.744Z,30.60
2019-03-22T01:37:17.479Z,30.40
2019-03-22T01:37:51.284Z,31.05
2019-03-22T01:38:24.960Z,30.97
2019-03-22T01:38:58.633Z,30.32
2019-03-22T01:39:32.304Z,32.33
2019-03-22T01:40:06.893Z,30.32
2019-03-22T01:40:40.614Z,29.87
2019-03-22T01:41:14.413Z,32.60
2019-03-22T01:41:48.133Z,31.70
2019-03-22T01:42:21.868Z,31.07
2019-03-22T01:42:55.873Z,31.85
2019-03-22T01:43:29.609Z,31.45
2019-03-22T01:44:03.341Z,31.80
2019-03-22T01:44:37.145Z,29.70
2019-03-22T01:45:11.332Z,31.60
2019-03-22T01:45:45.087Z,32.00
2019-03-22T01:46:18.832Z,31.73
2019-03-22T01:46:52.565Z,32.75
2019-03-22T01:47:26.306Z,32.88
2019-03-22T01:48:00.043Z,32.80
2019-03-22T01:48:33.775Z,33.63
2019-03-22T01:49:07.508Z,32.00
2019-03-22T01:49:41.173Z,31.95
2019-03-22T01:50:15.148Z,29.12
2019-03-22T01:50:50.205Z,32.50
2019-03-22T01:51:25.249Z,31.75
2019-03-22T01:51:58.996Z,29.98
2019-03-22T01:52:32.661Z,33.25
2019-03-22T01:53:06.404Z,32.35
2019-03-22T01:53:40.152Z,32.70
2019-03-22T01:54:13.859Z,31.90
2019-03-22T01:54:47.537Z,33.78
2019-03-22T01:55:21.209Z,32.25
2019-03-22T01:55:54.997Z,31.10
2019-03-22T01:56:28.675Z,33.88
2019-03-22T01:57:02.412Z,33.13
2019-03-22T01:57:36.089Z,31.20
2019-03-22T01:58:09.834Z,33.10
2019-03-22T01:58:43.503Z,31.80
2019-03-22T01:59:17.285Z,31.23
2019-03-22T01:59:50.977Z,32.30
2019-03-22T02:00:24.724Z,31.10
2019-03-22T02:00:58.481Z,32.95
2019-03-22T02:01:32.229Z,32.65
2019-03-22T02:02:05.967Z,33.63
2019-03-22T02:02:39.745Z,33.05
2019-03-22T02:03:13.476Z,35.23
2019-03-22T02:03:47.139Z,36.13
2019-03-22T02:04:20.873Z,33.60
2019-03-22T02:04:54.546Z,35.28
2019-03-22T02:05:28.324Z,33.67
2019-03-22T02:06:20.932Z,34.27
2019-03-22T02:06:54.688Z,33.48
2019-03-22T02:07:28.504Z,32.95
2019-03-22T02:08:02.247Z,32.80
2019-03-22T02:08:35.982Z,31.17
2019-03-22T02:09:09.997Z,34.25
2019-03-22T02:09:43.659Z,33.28
2019-03-22T02:10:17.449Z,32.30
2019-03-22T02:10:51.139Z,32.40
2019-03-22T02:11:24.895Z,32.83
2019-03-22T02:11:58.571Z,32.80
2019-03-22T02:12:32.320Z,32.17
2019-03-22T02:13:05.981Z,33.13
2019-03-22T02:13:39.659Z,32.88
2019-03-22T02:14:13.386Z,34.63
2019-03-22T02:14:47.124Z,34.45
2019-03-22T02:15:20.873Z,35.23
2019-03-22T02:15:54.846Z,33.73
2019-03-22T02:16:28.517Z,32.70
2019-03-22T02:17:02.187Z,32.35
2019-03-22T02:17:35.929Z,32.33
2019-03-22T02:18:09.630Z,33.18
2019-03-22T02:18:43.572Z,32.03
2019-03-22T02:19:17.328Z,32.78
2019-03-22T02:19:51.056Z,34.45
2019-03-22T02:20:24.751Z,33.73
2019-03-22T02:20:58.441Z,34.55
2019-03-22T02:21:32.231Z,34.65
2019-03-22T02:22:06.000Z,33.20
2019-03-22T02:22:39.909Z,32.53
2019-03-22T02:23:13.600Z,33.08
2019-03-22T02:23:47.441Z,32.45
2019-03-22T02:24:21.098Z,32.30
2019-03-22T02:24:54.757Z,34.13
2019-03-22T02:25:28.407Z,33.67
2019-03-22T02:26:02.425Z,32.30
2019-03-22T02:26:36.098Z,34.08
2019-03-22T02:27:09.862Z,35.00
2019-03-22T02:27:43.738Z,37.17
2019-03-22T02:28:17.577Z,36.68
2019-03-22T02:28:51.247Z,34.50
2019-03-22T02:29:24.957Z,34.33
2019-03-22T02:29:58.707Z,34.30
2019-03-22T02:30:32.401Z,32.50
2019-03-22T02:31:06.215Z,31.75
2019-03-22T02:31:39.910Z,31.52
2019-03-22T02:32:13.590Z,33.23
2019-03-22T02:32:47.325Z,33.15
2019-03-22T02:33:21.069Z,35.90
2019-03-22T02:33:54.748Z,35.20
2019-03-22T02:34:28.482Z,33.10
2019-03-22T02:35:02.221Z,31.90
2019-03-22T02:35:35.902Z,36.50
2019-03-22T02:36:09.666Z,33.28
2019-03-22T02:36:43.425Z,35.73
2019-03-22T02:37:17.165Z,35.85
2019-03-22T02:37:50.854Z,34.43
2019-03-22T02:38:24.589Z,34.40
2019-03-22T02:38:58.269Z,32.23
2019-03-22T02:39:32.023Z,36.10
2019-03-22T02:40:06.343Z,33.88
2019-03-22T02:40:40.693Z,36.55
2019-03-22T02:41:14.449Z,35.85
2019-03-22T02:41:48.254Z,34.73
2019-03-22T02:42:21.999Z,33.95
2019-03-22T02:42:55.670Z,32.42
2019-03-22T02:43:29.392Z,33.60
2019-03-22T02:44:03.130Z,31.35
2019-03-22T02:44:36.795Z,32.88
2019-03-22T02:45:10.638Z,31.10
2019-03-22T02:45:44.377Z,31.15
2019-03-22T02:46:18.107Z,31.15
2019-03-22T02:46:51.955Z,32.00
2019-03-22T02:47:25.693Z,31.10
2019-03-22T02:47:59.353Z,31.00
2019-03-22T02:48:33.014Z,30.70
2019-03-22T02:49:06.698Z,33.08
2019-03-22T02:49:40.524Z,30.82
2019-03-22T02:50:18.457Z,31.82
2019-03-22T02:50:49.761Z,30.90
2019-03-22T02:51:23.553Z,31.25
2019-03-22T02:51:57.301Z,31.73
2019-03-22T02:52:31.032Z,35.73
2019-03-22T02:53:04.688Z,37.35
2019-03-22T02:53:38.447Z,36.98
2019-03-22T02:54:12.097Z,37.17
2019-03-22T02:54:45.836Z,37.17
2019-03-22T02:55:19.589Z,36.00
2019-03-22T02:55:53.278Z,36.15
2019-03-22T02:56:27.114Z,37.15
2019-03-22T02:57:00.850Z,37.95
2019-03-22T02:57:34.609Z,37.50
2019-03-22T02:58:19.747Z,36.77
2019-03-22T02:58:43.849Z,40.43
2019-03-22T02:59:17.590Z,36.20
2019-03-22T02:59:51.249Z,36.28
2019-03-22T03:00:25.054Z,33.23
2019-03-22T03:00:59.077Z,34.30
2019-03-22T03:01:32.794Z,34.05
2019-03-22T03:02:06.669Z,31.40
2019-03-22T03:02:40.497Z,33.02
2019-03-22T03:03:14.168Z,33.20
2019-03-22T03:03:47.926Z,31.80
2019-03-22T03:04:21.593Z,32.10
2019-03-22T03:04:55.284Z,31.05
2019-03-22T03:05:28.962Z,31.23
2019-03-22T03:06:02.706Z,34.00
2019-03-22T03:06:36.454Z,34.45
2019-03-22T03:07:10.225Z,33.50
2019-03-22T03:07:43.994Z,34.30
2019-03-22T03:08:17.732Z,33.18
2019-03-22T03:08:51.487Z,33.70
2019-03-22T03:09:25.231Z,32.15
2019-03-22T03:09:58.904Z,31.82
2019-03-22T03:10:32.650Z,30.30
2019-03-22T03:11:06.440Z,33.18
2019-03-22T03:11:40.271Z,30.72
2019-03-22T03:12:13.951Z,32.75
2019-03-22T03:12:47.775Z,30.50
2019-03-22T03:13:21.585Z,31.40
2019-03-22T03:13:55.330Z,32.42
2019-03-22T03:14:28.998Z,31.27
2019-03-22T03:15:02.745Z,31.37
2019-03-22T03:15:36.479Z,32.13
2019-03-22T03:16:10.228Z,30.85
2019-03-22T03:16:43.910Z,29.37
2019-03-22T03:17:17.704Z,32.70
2019-03-22T03:17:51.461Z,32.17
2019-03-22T03:18:25.150Z,30.68
2019-03-22T03:18:58.885Z,32.65
2019-03-22T03:19:32.533Z,32.53
2019-03-22T03:20:06.542Z,31.23
2019-03-22T03:20:40.202Z,31.97
2019-03-22T03:21:13.938Z,29.00
2019-03-22T03:21:47.621Z,32.55
2019-03-22T03:22:21.310Z,32.75
2019-03-22T03:22:55.082Z,32.20
2019-03-22T03:23:28.752Z,36.38
2019-03-22T03:24:02.449Z,37.30
2019-03-22T03:24:36.194Z,36.60
2019-03-22T03:25:10.001Z,35.40
2019-03-22T03:25:43.787Z,35.92
2019-03-22T03:26:17.464Z,34.38
2019-03-22T03:26:51.137Z,35.78
2019-03-22T03:27:24.833Z,36.65
2019-03-22T03:27:58.742Z,35.98
2019-03-22T03:28:37.125Z,34.10
2019-03-22T03:29:07.816Z,34.33
2019-03-22T03:29:41.481Z,34.35
2019-03-22T03:30:15.617Z,33.48
2019-03-22T03:30:49.402Z,31.65
2019-03-22T03:31:23.157Z,31.05
2019-03-22T03:31:56.922Z,30.75
2019-03-22T03:32:30.588Z,31.17
2019-03-22T03:33:04.327Z,30.17
2019-03-22T03:33:38.003Z,34.00
2019-03-22T03:34:11.678Z,33.33
2019-03-22T03:34:45.438Z,32.48
2019-03-22T03:35:19.396Z,32.65
2019-03-22T03:35:53.402Z,32.93
2019-03-22T03:36:27.151Z,32.13
2019-03-22T03:37:00.914Z,30.40
2019-03-22T03:37:34.905Z,30.77
2019-03-22T03:38:08.562Z,32.85
2019-03-22T03:38:42.224Z,31.68
2019-03-22T03:39:15.882Z,30.30
2019-03-22T03:39:49.550Z,33.15
2019-03-22T03:40:23.256Z,30.40
2019-03-22T03:40:57.006Z,30.72
2019-03-22T03:41:30.677Z,30.97
2019-03-22T03:42:04.431Z,36.42
2019-03-22T03:42:38.299Z,34.80
2019-03-22T03:43:12.031Z,34.78
2019-03-22T03:43:45.705Z,37.40
2019-03-22T03:44:19.380Z,37.17
2019-03-22T03:44:53.133Z,34.60
2019-03-22T03:45:33.374Z,33.50
2019-03-22T03:46:07.162Z,32.40
2019-03-22T03:46:40.907Z,32.08
2019-03-22T03:47:14.617Z,33.53
2019-03-22T03:47:48.294Z,30.90
2019-03-22T03:48:22.026Z,33.40
2019-03-22T03:48:55.784Z,32.88
2019-03-22T03:49:29.453Z,33.00
2019-03-22T03:50:03.564Z,32.67
2019-03-22T03:50:37.528Z,36.35
2019-03-22T03:51:11.207Z,33.35
2019-03-22T03:51:44.876Z,34.20
2019-03-22T03:52:18.642Z,33.50
2019-03-22T03:52:52.323Z,33.63
2019-03-22T03:53:26.015Z,32.63
2019-03-22T03:53:59.773Z,32.90
2019-03-22T03:54:33.469Z,30.12
2019-03-22T03:55:07.181Z,32.05
2019-03-22T03:55:40.919Z,30.37
2019-03-22T03:56:14.668Z,31.77
2019-03-22T03:56:48.402Z,31.52
2019-03-22T03:57:22.152Z,33.13
2019-03-22T03:57:55.898Z,33.88
2019-03-22T03:58:29.649Z,33.70
2019-03-22T03:59:03.443Z,34.55
2019-03-22T03:59:37.110Z,32.85
2019-03-22T04:00:11.040Z,34.05
2019-03-22T04:00:44.779Z,34.30
2019-03-22T04:01:18.541Z,35.60
2019-03-22T04:01:52.296Z,35.78
2019-03-22T04:02:25.993Z,34.88
2019-03-22T04:02:59.734Z,33.40
2019-03-22T04:03:33.485Z,35.25
2019-03-22T04:04:07.159Z,34.27
2019-03-22T04:04:40.812Z,33.80
2019-03-22T04:05:14.902Z,33.85
2019-03-22T04:05:48.817Z,34.08
2019-03-22T04:06:22.487Z,35.25
2019-03-22T04:06:56.204Z,35.58
2019-03-22T04:07:29.875Z,34.70
2019-03-22T04:08:03.856Z,34.73
2019-03-22T04:08:37.816Z,34.90
2019-03-22T04:09:11.521Z,34.53
2019-03-22T04:09:45.193Z,33.65
2019-03-22T04:10:18.975Z,35.63
2019-03-22T04:10:52.706Z,34.95
2019-03-22T04:11:26.562Z,32.38
2019-03-22T04:12:00.230Z,34.60
2019-03-22T04:12:33.999Z,32.70
2019-03-22T04:13:07.762Z,33.13
2019-03-22T04:13:41.437Z,36.17
2019-03-22T04:14:15.124Z,35.05
2019-03-22T04:14:48.893Z,33.10
2019-03-22T04:15:22.714Z,34.38
2019-03-22T04:15:56.477Z,33.92
2019-03-22T04:16:30.234Z,32.25
2019-03-22T04:17:03.974Z,33.90
2019-03-22T04:17:37.697Z,34.38
2019-03-22T04:18:11.409Z,34.67
2019-03-22T04:18:45.073Z,32.45
2019-03-22T04:19:18.822Z,33.50
2019-03-22T04:19:52.493Z,36.25
2019-03-22T04:20:26.235Z,32.85
2019-03-22T04:21:00.098Z,32.60
2019-03-22T04:21:33.836Z,33.08
2019-03-22T04:22:07.506Z,32.45
2019-03-22T04:22:41.286Z,35.00
2019-03-22T04:23:15.108Z,33.42
2019-03-22T04:23:48.774Z,35.35
2019-03-22T04:24:22.514Z,31.70
2019-03-22T04:24:56.186Z,34.20
2019-03-22T04:25:30.117Z,34.30
2019-03-22T04:26:03.904Z,34.35
2019-03-22T04:26:37.570Z,31.42
2019-03-22T04:27:11.320Z,32.95
2019-03-22T04:27:45.007Z,32.93
2019-03-22T04:28:19.435Z,32.35
2019-03-22T04:29:06.621Z,33.92
2019-03-22T04:29:28.645Z,32.67
2019-03-22T04:30:02.445Z,34.18
2019-03-22T04:30:36.259Z,33.58
2019-03-22T04:31:09.993Z,32.30
2019-03-22T04:31:43.665Z,33.30
2019-03-22T04:32:17.406Z,32.70
2019-03-22T04:32:51.077Z,33.45
2019-03-22T04:33:24.773Z,33.48
2019-03-22T04:33:58.416Z,33.08
2019-03-22T04:34:32.088Z,32.48
2019-03-22T04:35:05.961Z,31.68
2019-03-22T04:35:39.631Z,33.60
2019-03-22T04:36:13.303Z,29.48
2019-03-22T04:36:46.954Z,31.55
2019-03-22T04:37:20.681Z,32.25
2019-03-22T04:37:54.563Z,32.98
2019-03-22T04:38:28.346Z,32.88
2019-03-22T04:39:02.033Z,32.30
2019-03-22T04:39:35.697Z,32.80
2019-03-22T04:40:18.298Z,32.10
2019-03-22T04:40:51.969Z,35.52
2019-03-22T04:41:25.714Z,31.62
2019-03-22T04:41:59.450Z,31.73
2019-03-22T04:42:33.189Z,35.10
2019-03-22T04:43:07.080Z,31.30
2019-03-22T04:43:40.813Z,32.75
2019-03-22T04:44:14.479Z,32.50
2019-03-22T04:44:48.214Z,32.90
2019-03-22T04:45:21.957Z,36.68
2019-03-22T04:45:56.086Z,36.85
2019-03-22T04:46:30.009Z,33.60
2019-03-22T04:47:04.341Z,32.15
2019-03-22T04:47:38.293Z,32.63
2019-03-22T04:48:17.285Z,35.15
2019-03-22T04:48:51.837Z,33.35
2019-03-22T04:49:25.882Z,32.83
2019-03-22T04:49:59.637Z,34.20
2019-03-22T04:50:34.908Z,34.15
2019-03-22T04:51:09.277Z,32.73
2019-03-22T04:51:43.505Z,34.20
2019-03-22T04:52:17.701Z,36.08
2019-03-22T04:52:51.428Z,34.65
2019-03-22T04:53:26.289Z,33.35
2019-03-22T04:54:01.714Z,36.13
2019-03-22T04:54:36.823Z,35.35
2019-03-22T04:55:11.168Z,35.10
2019-03-22T04:55:46.473Z,35.35
2019-03-22T04:56:20.805Z,34.18
2019-03-22T04:56:55.137Z,33.35
2019-03-22T04:57:28.870Z,34.00
2019-03-22T04:58:03.621Z,35.88
2019-03-22T04:58:38.932Z,33.85
2019-03-22T04:59:19.062Z,33.75
2019-03-22T04:59:50.130Z,33.02
2019-03-22T05:00:24.265Z,32.65
2019-03-22T05:00:58.930Z,32.58
2019-03-22T05:01:33.520Z,34.95
2019-03-22T05:02:07.912Z,31.97
2019-03-22T05:02:42.088Z,34.73
2019-03-22T05:03:16.765Z,33.63
2019-03-22T05:03:50.508Z,32.15
2019-03-22T05:04:24.957Z,33.02
2019-03-22T05:04:59.201Z,33.00
2019-03-22T05:05:33.205Z,33.92
2019-03-22T05:06:07.735Z,33.53
2019-03-22T05:06:42.769Z,34.35
2019-03-22T05:07:18.009Z,33.40
2019-03-22T05:07:51.745Z,33.50
2019-03-22T05:08:25.856Z,35.08
2019-03-22T05:09:00.396Z,32.55
2019-03-22T05:09:34.757Z,32.63
2019-03-22T05:10:09.221Z,32.93
2019-03-22T05:10:43.564Z,34.08
2019-03-22T05:11:17.320Z,32.28
2019-03-22T05:11:51.956Z,32.30
2019-03-22T05:12:25.728Z,33.05
2019-03-22T05:13:00.177Z,33.30
2019-03-22T05:13:35.240Z,34.73
2019-03-22T05:14:09.506Z,33.33
2019-03-22T05:14:44.058Z,32.20
2019-03-22T05:15:18.413Z,31.42
2019-03-22T05:15:52.240Z,34.00
2019-03-22T05:16:26.081Z,32.98
2019-03-22T05:17:00.018Z,32.10
2019-03-22T05:17:33.754Z,33.23
2019-03-22T05:18:08.000Z,35.23
2019-03-22T05:18:44.099Z,33.88
2019-03-22T05:19:18.704Z,34.67
2019-03-22T05:19:53.867Z,33.35
2019-03-22T05:20:28.384Z,34.73
2019-03-22T05:21:02.721Z,32.73
2019-03-22T05:21:36.996Z,33.05
2019-03-22T05:22:12.110Z,32.80
2019-03-22T05:22:46.158Z,34.15
2019-03-22T05:23:21.381Z,35.70
2019-03-22T05:23:56.733Z,34.15
2019-03-22T05:24:30.773Z,34.48
2019-03-22T05:25:04.789Z,34.08
2019-03-22T05:25:38.667Z,34.58
2019-03-22T05:26:14.297Z,34.83
2019-03-22T05:26:48.303Z,32.40
2019-03-22T05:27:22.705Z,34.27
2019-03-22T05:27:58.058Z,33.63
2019-03-22T05:28:32.529Z,36.88
2019-03-22T05:29:08.171Z,34.65
2019-03-22T05:29:42.887Z,35.70
2019-03-22T05:30:37.090Z,32.38
2019-03-22T05:31:32.396Z,32.13
2019-03-22T05:32:07.180Z,33.20
2019-03-22T05:32:40.852Z,33.48
2019-03-22T05:33:14.525Z,32.45
2019-03-22T05:33:48.235Z,34.33
2019-03-22T05:34:22.109Z,34.83
2019-03-22T05:34:55.777Z,33.05
2019-03-22T05:35:29.442Z,34.33
2019-03-22T05:36:03.189Z,34.73
2019-03-22T05:36:36.954Z,33.85
2019-03-22T05:37:10.960Z,36.50
2019-03-22T05:37:44.631Z,34.27
2019-03-22T05:38:18.289Z,33.88
2019-03-22T05:38:51.976Z,34.45
2019-03-22T05:39:25.729Z,34.73
2019-03-22T05:39:59.394Z,33.78
2019-03-22T05:40:33.054Z,35.13
2019-03-22T05:41:06.728Z,33.33
2019-03-22T05:41:40.496Z,33.33
2019-03-22T05:42:14.308Z,34.10
2019-03-22T05:42:48.049Z,33.73
2019-03-22T05:43:21.819Z,32.98
2019-03-22T05:43:55.581Z,34.23
2019-03-22T05:44:29.449Z,33.88
2019-03-22T05:45:03.217Z,35.03
2019-03-22T05:45:36.909Z,35.68
2019-03-22T05:46:10.733Z,32.25
2019-03-22T05:46:44.615Z,34.70
2019-03-22T05:47:18.271Z,33.63
2019-03-22T05:47:51.937Z,34.35
2019-03-22T05:48:25.606Z,35.23
2019-03-22T05:48:59.265Z,33.63
2019-03-22T05:49:33.038Z,33.25
2019-03-22T05:50:06.775Z,33.45
2019-03-22T05:50:40.512Z,34.20
2019-03-22T05:51:14.189Z,34.63
2019-03-22T05:51:47.871Z,32.50
2019-03-22T05:52:21.755Z,33.25
2019-03-22T05:52:55.400Z,33.15
2019-03-22T05:53:29.128Z,34.50
2019-03-22T05:54:02.875Z,32.33
2019-03-22T05:54:36.562Z,32.90
2019-03-22T05:55:10.698Z,33.35
2019-03-22T05:55:44.564Z,31.70
2019-03-22T05:56:18.230Z,34.00
2019-03-22T05:56:51.892Z,35.95
2019-03-22T05:57:25.578Z,33.23
2019-03-22T05:57:59.336Z,32.95
2019-03-22T05:58:33.109Z,35.58
2019-03-22T05:59:06.952Z,32.90
2019-03-22T05:59:42.705Z,33.35
2019-03-22T06:00:17.408Z,33.98
2019-03-22T06:00:51.080Z,34.38
2019-03-22T06:01:24.940Z,33.45
2019-03-22T06:01:58.704Z,35.40
2019-03-22T06:02:32.437Z,35.35
2019-03-22T06:03:06.214Z,36.65
2019-03-22T06:03:39.902Z,37.65
2019-03-22T06:04:13.645Z,36.90
2019-03-22T06:04:47.369Z,40.23
2019-03-22T06:05:21.021Z,40.95
2019-03-22T06:05:54.701Z,38.23
2019-03-22T06:06:28.376Z,37.08
2019-03-22T06:07:02.078Z,40.52
2019-03-22T06:07:37.049Z,37.63
2019-03-22T06:08:10.938Z,38.10
2019-03-22T06:08:44.965Z,37.45
2019-03-22T06:09:18.776Z,35.92
2019-03-22T06:09:52.509Z,35.68
2019-03-22T06:10:26.276Z,37.63
2019-03-22T06:11:00.040Z,37.95
2019-03-22T06:11:33.784Z,35.00
2019-03-22T06:12:07.520Z,36.00
2019-03-22T06:12:41.300Z,36.17
2019-03-22T06:13:15.112Z,36.83
2019-03-22T06:13:48.800Z,36.03
2019-03-22T06:14:22.572Z,35.45
2019-03-22T06:14:56.334Z,33.92
2019-03-22T06:15:29.996Z,34.78
2019-03-22T06:16:03.760Z,34.23
2019-03-22T06:16:37.530Z,35.17
2019-03-22T06:17:11.307Z,35.28
2019-03-22T06:17:51.615Z,34.65
2019-03-22T06:18:20.495Z,33.58
2019-03-22T06:18:54.304Z,35.00
2019-03-22T06:19:27.973Z,33.92
2019-03-22T06:20:01.650Z,33.35
2019-03-22T06:20:35.528Z,32.48
2019-03-22T06:21:09.263Z,34.23
2019-03-22T06:21:43.015Z,35.40
2019-03-22T06:22:16.912Z,35.40
2019-03-22T06:22:50.585Z,33.58
2019-03-22T06:23:24.339Z,35.48
2019-03-22T06:23:58.264Z,34.95
2019-03-22T06:24:31.975Z,34.78
2019-03-22T06:25:05.892Z,35.45
2019-03-22T06:25:39.717Z,34.75
2019-03-22T06:26:13.476Z,34.63
2019-03-22T06:26:47.211Z,35.70
2019-03-22T06:27:20.961Z,35.43
2019-03-22T06:27:54.643Z,35.70
2019-03-22T06:28:28.296Z,35.92
2019-03-22T06:29:01.988Z,35.78
2019-03-22T06:29:35.750Z,34.92
2019-03-22T06:30:10.376Z,35.38
2019-03-22T06:30:44.157Z,34.95
2019-03-22T06:31:20.517Z,33.67
2019-03-22T06:31:53.282Z,34.80
2019-03-22T06:32:27.069Z,35.48
2019-03-22T06:33:00.828Z,34.67
2019-03-22T06:33:34.636Z,36.20
2019-03-22T06:34:08.379Z,35.75
2019-03-22T06:34:42.130Z,36.70
2019-03-22T06:35:16.374Z,35.70
2019-03-22T06:35:50.130Z,35.25
2019-03-22T06:36:24.232Z,35.75
2019-03-22T06:36:58.050Z,34.70
2019-03-22T06:37:31.738Z,34.55
2019-03-22T06:38:05.528Z,34.70
2019-03-22T06:38:39.199Z,34.18
2019-03-22T06:39:12.885Z,35.73
2019-03-22T06:39:46.649Z,36.50
2019-03-22T06:40:20.484Z,34.75
2019-03-22T06:40:54.160Z,35.30
2019-03-22T06:41:27.903Z,34.85
2019-03-22T06:42:02.978Z,37.10
2019-03-22T06:42:36.920Z,33.25
2019-03-22T06:43:10.608Z,33.90
2019-03-22T06:43:44.284Z,35.00
2019-03-22T06:44:18.113Z,33.00
2019-03-22T06:44:51.872Z,34.55
2019-03-22T06:45:25.569Z,32.78
2019-03-22T06:45:59.327Z,34.18
2019-03-22T06:46:33.069Z,34.58
2019-03-22T06:47:06.768Z,35.73
2019-03-22T06:47:40.433Z,35.15
2019-03-22T06:48:14.144Z,34.85
2019-03-22T06:48:47.888Z,35.17
2019-03-22T06:49:21.635Z,35.45
2019-03-22T06:49:55.304Z,35.55
2019-03-22T06:50:29.638Z,34.63
2019-03-22T06:51:03.324Z,38.20
2019-03-22T06:51:37.787Z,36.13
2019-03-22T06:52:11.468Z,35.17
2019-03-22T06:52:45.167Z,36.50
2019-03-22T06:53:18.900Z,34.95
2019-03-22T06:53:52.573Z,34.90
2019-03-22T06:54:31.474Z,35.20
2019-03-22T06:55:01.728Z,34.53
2019-03-22T06:55:35.551Z,34.10
2019-03-22T06:56:09.357Z,36.60
2019-03-22T06:56:43.092Z,33.65
2019-03-22T06:57:16.849Z,35.20
2019-03-22T06:57:50.593Z,36.17
2019-03-22T06:58:24.426Z,34.53
2019-03-22T06:58:58.223Z,36.05
2019-03-22T06:59:31.893Z,34.00
2019-03-22T07:00:07.345Z,35.45
2019-03-22T07:00:41.521Z,33.90
2019-03-22T07:01:15.311Z,35.70
2019-03-22T07:01:49.068Z,34.88
2019-03-22T07:02:22.826Z,35.83
2019-03-22T07:02:56.502Z,36.13
2019-03-22T07:03:30.165Z,37.00
2019-03-22T07:04:04.206Z,36.25
2019-03-22T07:04:37.970Z,34.10
2019-03-22T07:05:13.629Z,36.23
2019-03-22T07:05:47.275Z,35.08
2019-03-22T07:06:21.070Z,36.35
2019-03-22T07:06:54.880Z,34.40
2019-03-22T07:07:28.930Z,34.33
2019-03-22T07:08:02.854Z,34.20
2019-03-22T07:08:36.730Z,35.25
2019-03-22T07:09:10.732Z,35.90
2019-03-22T07:09:44.567Z,35.10
2019-03-22T07:10:18.246Z,36.25
2019-03-22T07:10:52.222Z,35.75
2019-03-22T07:11:25.891Z,35.08
2019-03-22T07:11:59.677Z,38.23
2019-03-22T07:12:33.357Z,36.55
2019-03-22T07:13:07.021Z,36.85
2019-03-22T07:13:40.771Z,36.03
2019-03-22T07:14:14.516Z,38.88
2019-03-22T07:14:48.265Z,40.40
2019-03-22T07:15:22.076Z,38.42
2019-03-22T07:15:56.207Z,40.65
2019-03-22T07:16:29.986Z,37.65
2019-03-22T07:17:03.729Z,37.03
2019-03-22T07:17:37.490Z,38.90
2019-03-22T07:18:11.333Z,40.00